Pittsburgh, Pennsylvania
Traffic Map
Current Weather Conditions
Pittsburgh, Pennsylvania
Clear
Clear

Feels Like: 9°
Wind Chill: Ceiling: Unl
Heat Index: Visibility: 10mi
Dew Point: Wind: 0mph
Humidity: 64% Direction: ° ()
Pressure: 29.77in Gusts: 0mph
Raw Report DataKAGC 270853Z 00000KT 10SM CLR 09/03 A2977 RMK AO2 SLP086 T00940028 56012
Traffic Incident Summary
Active as of:
Severity:
Category:
InformationThere was an issue retrieving the traffic information for this location. Please try a different location or try again shortly.
Advertisements